Shawboro, North Carolina
Current Conditions -  °F | °C
As of 8:35 PM on Thursday 27 Nov 2014 (Local Time) from KONX Reporting Station
Overcast Overcast  
Wind Chill: 38°   Ceiling: 8000
Heat Index: 41°   Visibility: 10mi
Dew Point: 38°   Wind: 5mph
Humidity: 89%   Direction: 310°NW
Pressure: 30.15"   Gusts: NA
Location:  36.41°N, 76.09°W
Report Text: KONX 280135Z AUTO 31004KT 10SM SCT065 OVC080 05/03 A3015 RMK AO2 T00490032
Loading
Personal Weather Stations






























Interactive Weather Map New forecast layout! Learn more

10-Day Weather Forecast

Advertisements
Track Severe Weather on mobile